Time;durP1;ratioP1;P1;durP2;ratioP2;P2;SDS_P1;SDS_P2;PMS_P1;PMS_P2;Temp;Humidity;BMP_temperature;BMP_pressure;BME280_temperature;BME280_humidity;BME280_pressure;Samples;Min_cycle;Max_cycle;Signal;HPM_P1;HPM_P2
2023/08/29 00:00:13;;;;;;;5.82;3.70;;;;;;;22.81;74.18;94042.84;5103515;28;20503;-95
2023/08/29 00:02:41;;;;;;;4.47;3.70;;;;;;;22.70;75.22;94041.31;5104391;28;20873;-84
2023/08/29 00:05:07;;;;;;;5.90;3.55;;;;;;;22.65;75.58;94041.28;5103638;28;20016;-91
2023/08/29 00:07:33;;;;;;;3.75;3.17;;;;;;;22.54;76.51;94033.38;5104379;28;20024;-92
2023/08/29 00:09:58;;;;;;;4.22;3.83;;;;;;;22.56;76.39;94039.19;5103342;28;20377;-92
2023/08/29 00:12:23;;;;;;;3.65;3.03;;;;;;;22.43;77.34;94037.09;5103920;28;20071;-90
2023/08/29 00:14:49;;;;;;;5.40;3.38;;;;;;;22.49;76.99;94030.75;5106257;28;20030;-91
2023/08/29 00:17:16;;;;;;;6.82;3.60;;;;;;;22.48;77.34;94045.00;5109334;27;20117;-93
2023/08/29 00:19:42;;;;;;;5.60;3.83;;;;;;;22.43;77.64;94047.66;5111691;27;20024;-94
2023/08/29 00:22:07;;;;;;;7.43;3.67;;;;;;;22.36;78.12;94039.22;5119333;27;20033;-92
2023/08/29 00:24:32;;;;;;;5.80;3.72;;;;;;;22.33;78.38;94036.31;5091698;27;20032;-90
2023/08/29 00:26:58;;;;;;;7.72;4.28;;;;;;;22.40;78.01;94032.38;5108269;27;20441;-92
2023/08/29 00:29:23;;;;;;;9.02;3.90;;;;;;;22.37;78.57;94032.91;5116404;27;20107;-96
2023/08/29 00:31:49;;;;;;;6.10;3.33;;;;;;;22.38;78.42;94039.75;5113222;28;20028;-87
2023/08/29 00:34:14;;;;;;;6.55;3.83;;;;;;;22.27;78.89;94038.19;5105107;28;20103;-96
2023/08/29 00:36:39;;;;;;;4.30;3.15;;;;;;;22.21;79.06;94036.59;5086697;28;20027;-96
2023/08/29 00:39:05;;;;;;;7.88;3.90;;;;;;;22.18;79.95;94034.50;5106405;28;20019;-92
2023/08/29 00:41:30;;;;;;;5.60;3.70;;;;;;;22.11;80.23;94033.97;5104987;28;20467;-94
2023/08/29 00:43:56;;;;;;;6.85;3.95;;;;;;;22.05;80.56;94029.75;5104582;28;20032;-90
2023/08/29 00:46:22;;;;;;;6.40;3.35;;;;;;;22.08;80.49;94033.69;5111203;28;20023;-85
2023/08/29 00:48:49;;;;;;;4.70;3.50;;;;;;;21.99;81.10;94036.84;5092911;28;20036;-88
2023/08/29 00:51:14;;;;;;;4.32;3.65;;;;;;;22.10;80.63;94036.84;5103065;28;20027;-92
2023/08/29 00:53:39;;;;;;;7.85;3.80;;;;;;;22.02;81.14;94039.00;5103605;28;20019;-87
2023/08/29 00:56:05;;;;;;;7.00;3.85;;;;;;;21.98;81.66;94035.28;5117856;28;20023;-92
2023/08/29 00:58:31;;;;;;;7.05;3.88;;;;;;;21.97;81.77;94030.25;5086999;28;20036;-86
2023/08/29 01:00:57;;;;;;;5.68;4.50;;;;;;;21.99;81.60;94034.22;5102368;28;20028;-88
2023/08/29 01:03:22;;;;;;;6.47;3.88;;;;;;;21.96;81.93;94029.47;5085055;28;20538;-91
2023/08/29 01:05:48;;;;;;;6.88;3.90;;;;;;;22.03;81.37;94037.13;5102304;28;20036;-96
2023/08/29 01:08:13;;;;;;;5.30;4.53;;;;;;;22.01;81.84;94031.31;5101415;28;20034;-88
2023/08/29 01:10:41;;;;;;;5.32;4.20;;;;;;;21.95;82.29;94032.38;5083450;28;20043;-90
2023/08/29 01:13:17;;;;;;;8.90;4.25;;;;;;;21.93;82.38;94029.22;5101620;27;20048;-85
2023/08/29 01:15:45;;;;;;;4.97;4.10;;;;;;;21.92;82.68;94030.28;5088127;28;20446;-92
2023/08/29 01:18:12;;;;;;;5.53;3.75;;;;;;;21.80;83.27;94030.47;5087789;28;20449;-88
2023/08/29 01:20:39;;;;;;;7.68;4.00;;;;;;;21.69;84.37;94036.03;5083811;28;20114;-88
2023/08/29 01:23:18;;;;;;;5.57;4.18;;;;;;;21.65;84.53;94027.84;5097277;28;20042;-85
2023/08/29 01:26:08;;;;;;;6.50;3.55;;;;;;;21.63;84.95;94018.63;5101060;28;20047;-87
2023/08/29 01:28:34;;;;;;;5.57;4.13;;;;;;;21.60;85.23;94016.50;5108846;28;20527;-87
2023/08/29 01:31:00;;;;;;;4.97;4.15;;;;;;;21.55;85.82;94012.00;5082688;28;20051;-88
2023/08/29 01:33:26;;;;;;;7.47;4.10;;;;;;;21.56;85.69;94000.41;5101740;28;20558;-82
2023/08/29 01:35:51;;;;;;;6.10;4.30;;;;;;;21.50;86.40;94004.09;5107878;27;20046;-87
2023/08/29 01:38:17;;;;;;;4.55;3.70;;;;;;;21.43;86.86;94011.47;5096335;27;20472;-86
2023/08/29 01:40:43;;;;;;;4.10;3.80;;;;;;;21.41;87.24;94003.84;5106333;27;20118;-86
2023/08/29 01:43:08;;;;;;;6.90;3.80;;;;;;;21.38;87.43;94003.56;5111135;27;20524;-83
2023/08/29 01:45:34;;;;;;;7.22;4.32;;;;;;;21.30;88.39;94004.06;5125274;27;20079;-92
2023/08/29 01:47:59;;;;;;;7.88;4.38;;;;;;;21.24;88.57;93999.81;5104422;27;20024;-83
2023/08/29 01:50:26;;;;;;;7.45;4.07;;;;;;;21.22;88.64;93989.56;5104924;28;20500;-92
2023/08/29 01:52:52;;;;;;;7.40;4.65;;;;;;;21.12;89.31;93994.00;5085075;28;20042;-83
2023/08/29 01:55:18;;;;;;;5.97;4.50;;;;;;;21.03;89.89;93985.75;5086039;28;20020;-91
2023/08/29 01:57:44;;;;;;;5.18;4.50;;;;;;;20.94;90.57;93990.75;5103931;28;20081;-83
2023/08/29 02:00:11;;;;;;;5.82;4.10;;;;;;;20.88;90.86;93991.00;5085628;28;20495;-87
2023/08/29 02:02:38;;;;;;;6.47;4.45;;;;;;;20.87;91.35;93990.19;5088006;27;20039;-87
2023/08/29 02:05:04;;;;;;;8.27;4.50;;;;;;;20.84;91.33;93990.72;5105141;27;20130;-86
2023/08/29 02:07:29;;;;;;;5.03;4.60;;;;;;;20.82;91.69;93998.09;5110430;27;20099;-88
2023/08/29 02:09:54;;;;;;;6.00;5.43;;;;;;;20.78;91.94;93989.09;5091025;28;20477;-88
2023/08/29 02:12:20;;;;;;;8.35;5.15;;;;;;;20.79;91.79;93995.16;5108728;27;20027;-92
2023/08/29 02:14:45;;;;;;;5.78;5.28;;;;;;;20.78;91.95;93996.22;5115388;27;20029;-81
2023/08/29 02:17:11;;;;;;;5.22;4.82;;;;;;;20.68;92.71;93993.56;5110444;27;20028;-87
2023/08/29 02:19:36;;;;;;;7.57;5.13;;;;;;;20.63;93.20;93991.69;5105003;28;20031;-91
2023/08/29 02:22:01;;;;;;;7.78;5.85;;;;;;;20.55;93.91;93988.75;5105281;28;20015;-88
2023/08/29 02:24:27;;;;;;;7.50;5.93;;;;;;;20.49;94.40;93993.19;5105248;28;20424;-92
2023/08/29 02:26:53;;;;;;;7.28;5.60;;;;;;;20.43;95.03;93994.19;5114967;27;20047;-88
2023/08/29 02:29:18;;;;;;;6.60;6.10;;;;;;;20.40;95.30;93986.81;5115958;27;20027;-88
2023/08/29 02:31:44;;;;;;;7.80;6.00;;;;;;;20.36;95.50;93983.91;5108806;27;20023;-93
2023/08/29 02:34:09;;;;;;;6.25;5.75;;;;;;;20.35;95.68;93986.81;5117632;27;20011;-87
2023/08/29 02:36:34;;;;;;;6.53;5.78;;;;;;;20.35;95.64;93987.59;5119447;27;20074;-95
2023/08/29 02:39:00;;;;;;;8.15;5.25;;;;;;;20.34;95.97;93991.25;5118717;27;20027;-91
2023/08/29 02:41:25;;;;;;;5.80;5.28;;;;;;;20.29;96.23;93977.31;5112663;27;20102;-96
2023/08/29 02:43:50;;;;;;;6.00;5.50;;;;;;;20.41;95.71;93994.47;5121928;27;20015;-90
2023/08/29 02:46:16;;;;;;;6.03;4.78;;;;;;;20.47;95.58;93987.38;5112045;27;20064;-95
2023/08/29 02:48:41;;;;;;;5.57;5.13;;;;;;;20.44;95.49;93987.91;5125863;27;20057;-94
2023/08/29 02:51:07;;;;;;;6.03;5.43;;;;;;;20.43;95.38;93986.31;5105869;27;20020;-86
2023/08/29 02:53:33;;;;;;;6.70;6.10;;;;;;;20.39;95.85;93986.03;5104588;28;20080;-84
2023/08/29 02:55:59;;;;;;;7.45;6.20;;;;;;;20.35;95.97;93984.97;5106613;27;20051;-87
2023/08/29 02:58:24;;;;;;;7.03;6.35;;;;;;;20.33;96.39;93986.25;5106119;28;20597;-94
2023/08/29 03:00:56;;;;;;;9.48;6.00;;;;;;;20.28;96.72;93973.06;5115277;27;20459;-94
2023/08/29 03:03:21;;;;;;;10.95;6.55;;;;;;;20.26;96.90;93975.94;5115360;27;20034;-94
2023/08/29 03:05:54;;;;;;;6.88;6.18;;;;;;;20.19;97.29;93970.13;5115131;27;20439;-94
2023/08/29 03:08:20;;;;;;;6.40;5.63;;;;;;;20.19;97.73;93972.75;5116103;27;20030;-82
2023/08/29 03:10:45;;;;;;;6.43;5.93;;;;;;;20.21;97.59;93968.00;5116825;27;20486;-95
2023/08/29 03:13:10;;;;;;;6.72;6.22;;;;;;;20.22;97.42;93972.22;5109642;28;20556;-92
2023/08/29 03:15:36;;;;;;;10.05;5.82;;;;;;;20.22;97.50;93961.72;5104762;28;20027;-95
2023/08/29 03:18:03;;;;;;;9.85;5.68;;;;;;;20.24;97.28;93966.69;5108636;27;20474;-94
2023/08/29 03:20:28;;;;;;;7.57;5.70;;;;;;;20.17;97.75;93968.75;5108734;27;20031;-86
2023/08/29 03:22:53;;;;;;;6.68;6.10;;;;;;;20.19;97.94;93961.44;5115870;27;20028;-94
2023/08/29 03:25:20;;;;;;;9.63;5.53;;;;;;;20.18;97.88;93967.72;5109016;28;20032;-95
2023/08/29 03:27:46;;;;;;;5.65;5.07;;;;;;;20.16;97.98;93973.25;5097496;28;20147;-90
2023/08/29 03:30:12;;;;;;;5.63;5.10;;;;;;;20.12;98.31;93971.38;5106479;28;20085;-91
2023/08/29 03:32:39;;;;;;;8.20;5.40;;;;;;;20.21;97.84;93977.72;5103022;28;20024;-83
2023/08/29 03:35:05;;;;;;;6.32;5.28;;;;;;;20.12;98.73;93982.69;5092984;28;20036;-90
2023/08/29 03:37:30;;;;;;;10.40;5.60;;;;;;;20.11;98.78;93983.72;5081766;28;20026;-85
2023/08/29 03:39:57;;;;;;;10.15;5.70;;;;;;;20.00;99.44;93982.84;5083361;28;20471;-88
2023/08/29 03:42:22;;;;;;;9.95;5.40;;;;;;;20.02;99.29;93981.81;5081339;28;20024;-85
2023/08/29 03:44:48;;;;;;;10.05;5.97;;;;;;;20.01;99.54;93978.38;5090266;28;20026;-84
2023/08/29 03:47:13;;;;;;;6.18;5.40;;;;;;;20.09;99.12;93983.19;5102245;28;20032;-82
2023/08/29 03:49:38;;;;;;;7.95;5.55;;;;;;;20.10;98.64;93984.75;5082126;28;20024;-78
2023/08/29 03:52:04;;;;;;;6.40;5.78;;;;;;;20.04;99.49;93988.41;5082766;28;20639;-93
2023/08/29 03:54:30;;;;;;;6.40;5.78;;;;;;;20.09;99.04;93985.03;5080335;28;20032;-85
2023/08/29 03:56:55;;;;;;;9.63;6.00;;;;;;;20.03;99.42;93981.56;5083758;28;20158;-85
2023/08/29 03:59:21;;;;;;;8.00;5.65;;;;;;;20.08;99.15;93978.19;5095862;28;20035;-90
2023/08/29 04:01:46;;;;;;;6.75;5.72;;;;;;;20.10;98.90;93979.50;5083715;28;20032;-96
2023/08/29 04:04:11;;;;;;;8.73;5.68;;;;;;;20.09;98.95;93982.41;5096753;28;20111;-88
2023/08/29 04:06:37;;;;;;;7.18;5.60;;;;;;;20.17;98.27;93980.06;5082456;28;20469;-90
2023/08/29 04:09:08;;;;;;;5.65;5.15;;;;;;;20.21;97.89;93990.88;5084145;27;20032;-90
2023/08/29 04:11:33;;;;;;;6.40;5.15;;;;;;;20.33;96.93;93989.66;5098938;28;20402;-92
2023/08/29 04:13:59;;;;;;;7.70;5.45;;;;;;;20.30;97.35;93994.66;5091838;28;20027;-90
2023/08/29 04:16:24;;;;;;;13.75;5.20;;;;;;;20.42;96.38;93988.13;5084262;28;20035;-86
2023/08/29 04:18:50;;;;;;;5.85;5.22;;;;;;;20.39;96.46;93980.75;5090715;28;20423;-93
2023/08/29 04:21:15;;;;;;;8.98;5.18;;;;;;;20.44;96.57;93972.13;5090283;28;20100;-94
2023/08/29 04:23:41;;;;;;;7.28;4.88;;;;;;;20.47;96.02;93967.13;5103493;28;20031;-84
2023/08/29 04:26:06;;;;;;;6.57;4.25;;;;;;;20.57;95.23;93952.44;5102546;28;20440;-92
2023/08/29 04:28:32;;;;;;;6.72;4.68;;;;;;;20.62;94.69;93947.19;5102311;28;20038;-87
2023/08/29 04:31:09;;;;;;;5.18;4.18;;;;;;;20.74;94.33;93950.41;5097275;28;20039;-94
2023/08/29 04:33:34;;;;;;;9.48;4.47;;;;;;;20.93;93.04;93943.63;5108595;28;20035;-83
2023/08/29 04:36:00;;;;;;;5.43;4.38;;;;;;;22.09;86.48;93946.38;5111350;28;20057;-90
2023/08/29 04:38:25;;;;;;;8.30;4.55;;;;;;;22.88;81.71;93935.06;5112794;28;20042;-88
2023/08/29 04:40:54;;;;;;;4.78;3.40;;;;;;;23.39;78.74;93935.56;5119018;27;20503;-84
2023/08/29 04:43:19;;;;;;;;;;;;;;;24.30;74.50;93934.88;5118364;27;20056;-91
2023/08/29 04:45:45;;;;;;;5.83;3.70;;;;;;;24.57;71.56;93911.25;5096848;28;19967;-91
2023/08/29 04:48:10;;;;;;;4.55;3.67;;;;;;;24.80;71.21;93936.13;5107268;27;20323;-89
2023/08/29 04:50:35;;;;;;;6.00;3.67;;;;;;;25.22;68.49;93936.16;5119015;28;20046;-90
2023/08/29 04:53:01;;;;;;;3.67;3.35;;;;;;;24.99;68.67;93935.13;5111821;27;20032;-84
2023/08/29 04:55:26;;;;;;;5.07;3.50;;;;;;;25.73;65.28;93938.06;5108086;27;20031;-94
2023/08/29 04:57:54;;;;;;;9.35;3.58;;;;;;;26.08;63.82;93934.84;5121731;27;20111;-87
2023/08/29 05:00:20;;;;;;;4.85;3.42;;;;;;;26.54;61.59;93929.53;5110934;27;20039;-84
2023/08/29 05:02:45;;;;;;;7.20;3.58;;;;;;;26.69;60.88;93934.53;5108410;27;20104;-90
2023/08/29 05:05:10;;;;;;;4.55;3.20;;;;;;;26.26;61.27;93925.28;5111108;28;20015;-91
2023/08/29 05:07:36;;;;;;;3.63;2.80;;;;;;;26.20;59.96;93930.66;5123846;27;20023;-92
2023/08/29 05:10:01;;;;;;;5.85;3.63;;;;;;;26.52;59.95;93926.38;5109662;27;20480;-85
2023/08/29 05:12:27;;;;;;;4.53;3.28;;;;;;;27.01;58.05;93931.00;5122369;27;20032;-84
2023/08/29 05:14:54;;;;;;;7.88;3.47;;;;;;;27.20;57.19;93931.66;5126312;27;20027;-91
2023/08/29 05:17:19;;;;;;;5.70;3.65;;;;;;;27.51;55.86;93931.81;5110685;27;20655;-85
2023/08/29 05:19:45;;;;;;;5.82;3.00;;;;;;;27.37;55.02;93928.34;5113171;27;20039;-89
2023/08/29 05:22:11;;;;;;;4.80;3.53;;;;;;;27.92;53.41;93926.28;5126004;27;20023;-83
2023/08/29 05:24:36;;;;;;;5.03;3.28;;;;;;;28.73;51.05;93933.03;5123232;27;20015;-81
2023/08/29 05:27:02;;;;;;;4.05;3.20;;;;;;;28.34;52.14;93923.13;5111039;27;20166;-85
2023/08/29 05:29:27;;;;;;;3.53;3.22;;;;;;;28.65;49.69;93918.56;5105876;28;20429;-79
2023/08/29 05:31:53;;;;;;;5.10;3.20;;;;;;;28.01;53.08;93927.91;5104226;28;20061;-84
2023/08/29 05:34:18;;;;;;;4.15;3.40;;;;;;;27.59;53.56;93934.53;5103228;27;20137;-78
2023/08/29 05:36:48;;;;;;;4.65;3.50;;;;;;;28.17;52.14;93931.00;5109664;27;20525;-81
2023/08/29 05:39:14;;;;;;;3.47;2.92;;;;;;;29.06;50.99;93922.78;5108592;27;20146;-79
2023/08/29 05:41:39;;;;;;;4.72;3.55;;;;;;;28.69;49.54;93924.06;5111957;27;20397;-76
2023/08/29 05:44:05;;;;;;;3.70;3.38;;;;;;;28.87;49.16;93919.56;5114707;27;20023;-81
2023/08/29 05:46:31;;;;;;;3.42;2.90;;;;;;;28.88;48.62;93923.81;5097357;27;20031;-80
2023/08/29 05:48:58;;;;;;;3.67;3.38;;;;;;;30.19;46.50;93930.47;5110866;27;20035;-87
2023/08/29 06:03:36;;;;;;;3.95;3.60;;;;;;;31.17;42.45;93914.22;5113724;27;20406;-83
2023/08/29 06:06:03;;;;;;;5.75;3.30;;;;;;;31.04;42.32;93912.59;5076368;28;20032;-81
2023/08/29 06:08:33;;;;;;;6.22;3.75;;;;;;;30.79;43.06;93923.06;5061886;28;20020;-78
2023/08/29 06:11:03;;;;;;;7.85;3.40;;;;;;;31.20;42.27;93916.25;5077623;28;20038;-80
2023/08/29 06:13:29;;;;;;;5.25;3.78;;;;;;;30.02;44.58;93915.25;5082443;28;20028;-80
2023/08/29 06:15:54;;;;;;;7.05;3.30;;;;;;;30.81;42.38;93918.19;5100645;28;20038;-82
2023/08/29 06:18:20;;;;;;;4.10;3.22;;;;;;;28.95;47.01;93906.25;5090392;28;20657;-79
2023/08/29 06:20:45;;;;;;;10.68;3.72;;;;;;;28.19;48.89;93900.31;5058026;28;20055;-89
2023/08/29 06:23:11;;;;;;;4.80;3.10;;;;;;;28.53;48.71;93898.91;5063586;28;20039;-82
2023/08/29 06:25:37;;;;;;;4.22;3.83;;;;;;;29.26;48.29;93906.16;5113042;28;20374;-88
2023/08/29 06:28:02;;;;;;;4.93;3.55;;;;;;;27.95;50.54;93913.16;5081968;28;20537;-81
2023/08/29 06:30:28;;;;;;;4.95;3.40;;;;;;;28.36;50.51;93915.59;5094319;28;20024;-90
2023/08/29 06:32:54;;;;;;;7.50;3.40;;;;;;;29.62;48.69;93928.03;5075738;28;20192;-89
2023/08/29 06:35:20;;;;;;;3.53;3.15;;;;;;;28.80;48.34;93921.91;5080302;28;20028;-92
2023/08/29 06:37:45;;;;;;;3.50;3.00;;;;;;;29.93;45.96;93927.06;5081985;28;20030;-91
2023/08/29 06:40:11;;;;;;;6.68;3.25;;;;;;;32.40;40.65;93915.22;5077367;28;20027;-82
2023/08/29 06:42:40;;;;;;;4.47;3.20;;;;;;;32.88;39.40;93915.31;5063384;28;20427;-89
2023/08/29 06:45:06;;;;;;;3.15;2.80;;;;;;;31.99;40.08;93921.47;5078120;28;20106;-80
2023/08/29 06:47:32;;;;;;;5.28;3.67;;;;;;;34.28;37.10;93919.03;5080764;28;20016;-93
2023/08/29 06:49:58;;;;;;;3.58;3.28;;;;;;;34.67;36.06;93920.84;5082069;28;20031;-91
2023/08/29 06:52:23;;;;;;;5.47;3.15;;;;;;;35.92;34.53;93915.22;5081592;28;20024;-92
2023/08/29 06:54:49;;;;;;;3.80;3.05;;;;;;;35.35;33.67;93921.28;5091714;28;20450;-83
2023/08/29 06:57:14;;;;;;;6.25;3.20;;;;;;;36.37;33.62;93917.25;5094641;28;20424;-89
2023/08/29 06:59:40;;;;;;;5.22;2.83;;;;;;;37.52;31.39;93924.16;5098688;28;20361;-91
2023/08/29 07:02:06;;;;;;;3.10;2.75;;;;;;;38.75;30.68;93924.03;5098521;28;20058;-91
2023/08/29 07:04:31;;;;;;;5.47;3.10;;;;;;;34.55;33.78;93920.88;5072133;28;20028;-87
2023/08/29 07:06:57;;;;;;;3.20;2.90;;;;;;;37.40;30.37;93914.31;5079078;28;20048;-91
2023/08/29 07:09:22;;;;;;;6.65;3.30;;;;;;;35.43;32.87;93928.41;5068957;28;20039;-86
2023/08/29 07:11:48;;;;;;;4.65;3.10;;;;;;;35.27;33.57;93926.88;5075790;28;20029;-90
2023/08/29 07:14:13;;;;;;;3.65;2.90;;;;;;;37.89;31.25;93935.81;5077994;28;20050;-87
2023/08/29 07:16:39;;;;;;;3.80;2.47;;;;;;;37.27;29.88;93925.69;5080440;28;20511;-91
2023/08/29 07:19:05;;;;;;;4.57;2.97;;;;;;;38.68;29.21;93932.09;5078751;28;20493;-92
2023/08/29 07:21:30;;;;;;;4.00;2.80;;;;;;;37.62;30.81;93910.00;5063941;28;20378;-91
2023/08/29 07:23:56;;;;;;;4.20;2.90;;;;;;;36.51;31.30;93919.38;5079309;28;20093;-91
2023/08/29 07:26:21;;;;;;;4.78;2.85;;;;;;;36.58;31.90;93906.03;5080433;28;20028;-84
2023/08/29 07:28:46;;;;;;;5.07;2.90;;;;;;;38.05;30.25;93902.41;5085476;28;20043;-88
2023/08/29 07:31:12;;;;;;;7.78;3.67;;;;;;;36.26;32.45;93897.38;5083660;28;20075;-81
2023/08/29 07:33:38;;;;;;;7.60;3.70;;;;;;;34.39;33.66;93888.56;5065439;28;20115;-91
2023/08/29 07:36:04;;;;;;;4.47;3.42;;;;;;;33.15;36.56;93881.66;5060365;28;20121;-86
2023/08/29 07:38:31;;;;;;;9.75;4.07;;;;;;;32.37;39.48;93889.06;5061309;28;20063;-90
2023/08/29 07:40:57;;;;;;;4.57;3.67;;;;;;;32.59;38.97;93891.38;5082617;28;20036;-85
2023/08/29 07:43:22;;;;;;;5.00;3.38;;;;;;;31.91;39.65;93894.75;5063133;28;20025;-84
2023/08/29 07:45:52;;;;;;;6.72;3.65;;;;;;;30.71;40.71;93896.34;5083231;28;20589;-87
2023/08/29 07:48:19;;;;;;;5.75;3.20;;;;;;;30.27;42.36;93901.06;5062242;28;20020;-84
2023/08/29 07:50:45;;;;;;;4.38;3.47;;;;;;;31.52;40.61;93896.84;5069087;28;20028;-84
2023/08/29 07:53:10;;;;;;;3.58;3.28;;;;;;;31.37;41.26;93892.03;5083167;28;20039;-86
2023/08/29 07:55:36;;;;;;;3.90;3.40;;;;;;;31.08;42.35;93894.78;5068413;28;20028;-87
2023/08/29 07:58:02;;;;;;;3.88;3.47;;;;;;;30.36;41.76;93902.91;5069257;28;20036;-82
2023/08/29 08:00:28;;;;;;;7.38;3.70;;;;;;;30.08;43.08;93906.00;5077736;28;20020;-80
2023/08/29 08:02:54;;;;;;;6.15;3.92;;;;;;;30.14;43.31;93898.59;5079102;28;20055;-85
2023/08/29 08:05:19;;;;;;;5.20;3.63;;;;;;;29.94;43.91;93900.06;5080873;28;20036;-79
2023/08/29 08:07:45;;;;;;;3.70;3.40;;;;;;;30.43;42.49;93914.72;5061747;28;20448;-86
2023/08/29 08:10:12;;;;;;;4.93;3.72;;;;;;;29.61;44.51;93917.63;5050174;28;20025;-81
2023/08/29 08:12:39;;;;;;;5.15;3.50;;;;;;;29.65;44.65;93913.25;5077562;28;20573;-85
2023/08/29 08:15:06;;;;;;;4.35;3.47;;;;;;;29.42;45.64;93922.50;5078459;28;20020;-81
2023/08/29 08:17:32;;;;;;;7.60;4.10;;;;;;;29.97;44.33;93917.31;5080877;28;20032;-79
2023/08/29 08:19:57;;;;;;;10.60;3.30;;;;;;;30.32;43.80;93913.47;5060757;28;20424;-85
2023/08/29 08:22:24;;;;;;;9.07;4.00;;;;;;;29.67;44.64;93908.38;5072912;28;20023;-78
2023/08/29 08:24:50;;;;;;;6.25;3.70;;;;;;;29.49;45.55;93909.47;5081759;28;20032;-82
2023/08/29 08:27:16;;;;;;;5.68;3.60;;;;;;;29.24;44.92;93900.34;5080697;28;20016;-83
2023/08/29 08:29:42;;;;;;;6.70;4.30;;;;;;;28.99;46.71;93898.44;5081759;28;20037;-81
2023/08/29 08:32:08;;;;;;;5.00;3.80;;;;;;;29.80;45.78;93889.50;5064333;28;20098;-88
2023/08/29 08:34:34;;;;;;;4.38;3.97;;;;;;;29.33;44.83;93893.16;5065802;28;20108;-83
2023/08/29 08:36:59;;;;;;;4.55;3.33;;;;;;;30.00;44.99;93884.63;5068216;28;20484;-87
2023/08/29 08:39:25;;;;;;;4.57;3.67;;;;;;;29.51;45.16;93888.63;5072574;28;20455;-86
2023/08/29 08:41:51;;;;;;;5.72;3.95;;;;;;;28.86;47.13;93892.13;5076541;28;20028;-80
2023/08/29 08:44:20;;;;;;;4.03;3.50;;;;;;;28.56;47.42;93892.94;5074559;28;20040;-79
2023/08/29 08:46:46;;;;;;;4.53;3.92;;;;;;;28.90;47.52;93897.63;5051432;28;20024;-82
2023/08/29 08:49:12;;;;;;;3.88;3.58;;;;;;;28.86;46.82;93892.13;5065414;28;20093;-85
2023/08/29 08:51:38;;;;;;;5.22;3.25;;;;;;;29.38;46.29;93887.66;5069349;28;20028;-87
2023/08/29 08:54:07;;;;;;;6.53;4.18;;;;;;;29.00;46.98;93876.75;5049467;28;20032;-89
2023/08/29 08:56:33;;;;;;;4.50;3.60;;;;;;;29.58;46.93;93856.88;5078428;28;20019;-88
2023/08/29 08:58:59;;;;;;;6.75;3.88;;;;;;;29.55;46.87;93858.28;5069560;28;20027;-86
2023/08/29 09:01:26;;;;;;;3.70;3.40;;;;;;;29.73;46.82;93854.47;5066629;28;20024;-86
2023/08/29 09:03:51;;;;;;;4.47;3.50;;;;;;;29.64;46.29;93856.38;5083685;28;20020;-89
2023/08/29 09:06:17;;;;;;;10.52;4.13;;;;;;;30.12;46.34;93855.34;5081509;28;20023;-81
2023/08/29 09:08:42;;;;;;;4.93;3.63;;;;;;;30.19;45.47;93861.00;5083404;28;20022;-89
2023/08/29 09:11:08;;;;;;;3.83;3.42;;;;;;;29.42;46.58;93863.78;5086427;28;20027;-87
2023/08/29 09:13:34;;;;;;;4.88;3.70;;;;;;;29.83;47.11;93866.00;5071416;28;20043;-87
2023/08/29 09:16:00;;;;;;;6.25;4.40;;;;;;;30.58;43.98;93860.72;5076965;28;20036;-87
2023/08/29 09:18:34;;;;;;;5.15;4.32;;;;;;;30.63;44.38;93860.50;5076761;28;20020;-87
2023/08/29 09:21:00;;;;;;;5.53;4.00;;;;;;;30.66;44.53;93859.91;5072421;28;20101;-79
2023/08/29 09:23:27;;;;;;;4.53;4.10;;;;;;;30.45;44.82;93875.06;5069682;28;20024;-89
2023/08/29 09:25:59;;;;;;;6.70;3.67;;;;;;;30.76;45.17;93851.47;5071352;28;20487;-83
2023/08/29 09:28:29;;;;;;;7.47;3.88;;;;;;;30.49;45.38;93870.66;5069572;28;20031;-88
2023/08/29 09:31:09;;;;;;;6.72;3.85;;;;;;;31.14;43.02;93856.00;5085238;28;20316;-83
2023/08/29 09:33:35;;;;;;;6.55;3.95;;;;;;;29.99;44.91;93869.72;5069696;28;20028;-85
2023/08/29 09:36:02;;;;;;;5.35;4.50;;;;;;;30.12;44.22;93858.03;5086842;28;20024;-86
2023/08/29 09:38:32;;;;;;;4.88;4.32;;;;;;;30.72;44.18;93847.91;5088947;28;20034;-85
2023/08/29 09:40:57;;;;;;;4.57;4.18;;;;;;;31.11;42.93;93854.75;5069086;28;20055;-80
2023/08/29 09:43:22;;;;;;;5.35;4.00;;;;;;;31.63;43.41;93857.03;5087721;28;20536;-86
2023/08/29 09:45:50;;;;;;;4.78;4.03;;;;;;;31.18;43.27;93848.84;5086620;28;20493;-85
2023/08/29 09:48:16;;;;;;;4.60;4.00;;;;;;;31.40;42.90;93853.91;5066807;28;20085;-91
2023/08/29 09:50:41;;;;;;;8.98;3.88;;;;;;;30.77;43.17;93858.41;5068051;28;20481;-77
2023/08/29 09:53:08;;;;;;;4.88;4.13;;;;;;;30.96;44.23;93854.53;5083924;28;20035;-86
2023/08/29 09:55:39;;;;;;;6.35;4.25;;;;;;;30.42;43.57;93853.53;5069706;28;20394;-78
2023/08/29 09:58:06;;;;;;;10.88;4.20;;;;;;;30.51;43.81;93848.94;5085466;28;20027;-79
2023/08/29 10:00:33;;;;;;;5.30;4.60;;;;;;;30.55;43.66;93847.97;5066683;28;20020;-82
2023/08/29 10:03:01;;;;;;;7.80;4.87;;;;;;;30.39;44.10;93849.59;5083308;28;20101;-83
2023/08/29 10:05:33;;;;;;;5.68;4.43;;;;;;;29.76;44.87;93848.50;5067136;28;20058;-82
2023/08/29 10:08:03;;;;;;;7.40;4.40;;;;;;;30.36;44.35;93849.47;5085819;28;20065;-77
2023/08/29 10:10:29;;;;;;;6.15;4.70;;;;;;;29.96;45.52;93847.06;5085367;28;20019;-84
2023/08/29 10:12:55;;;;;;;5.65;4.50;;;;;;;30.03;44.83;93847.38;5086864;28;20036;-83
2023/08/29 10:15:22;;;;;;;6.85;4.80;;;;;;;29.76;45.56;93839.72;5086463;28;20071;-85
2023/08/29 10:17:47;;;;;;;4.90;4.15;;;;;;;30.22;44.84;93838.97;5089887;28;20035;-78
2023/08/29 10:20:13;;;;;;;4.80;4.40;;;;;;;30.02;45.22;93840.44;5085461;28;20032;-83
2023/08/29 10:22:45;;;;;;;4.95;4.53;;;;;;;29.98;45.35;93836.88;5069993;28;20464;-85
2023/08/29 10:25:11;;;;;;;5.13;4.63;;;;;;;29.93;46.76;93837.03;5086283;28;20040;-84
2023/08/29 10:27:37;;;;;;;4.82;4.43;;;;;;;29.74;46.50;93833.91;5086806;28;20058;-81
2023/08/29 10:30:03;;;;;;;5.43;4.93;;;;;;;29.82;45.33;93830.44;5086804;28;20081;-83
2023/08/29 10:32:29;;;;;;;5.22;4.82;;;;;;;29.50;45.82;93836.31;5086156;28;20110;-79
2023/08/29 10:34:55;;;;;;;5.88;4.78;;;;;;;29.38;46.41;93836.16;5087105;28;20485;-84
2023/08/29 10:37:21;;;;;;;5.78;5.28;;;;;;;29.43;46.47;93831.44;5068158;28;20032;-87
2023/08/29 10:39:48;;;;;;;6.20;5.15;;;;;;;29.35;46.69;93826.13;5091240;28;20440;-84
2023/08/29 10:42:14;;;;;;;8.10;5.22;;;;;;;29.50;46.23;93831.75;5089727;28;20035;-85
2023/08/29 10:44:42;;;;;;;7.03;5.18;;;;;;;29.59;45.85;93826.41;5090884;28;20020;-85
2023/08/29 10:47:35;;;;;;;6.18;5.30;;;;;;;29.45;46.20;93831.13;5071361;28;20031;-83
2023/08/29 10:50:02;;;;;;;5.90;5.35;;;;;;;29.42;45.80;93840.56;5077820;28;20036;-82
2023/08/29 10:52:39;;;;;;;6.25;5.72;;;;;;;29.53;46.58;93831.13;5089978;28;20036;-81
2023/08/29 10:55:18;;;;;;;7.20;5.30;;;;;;;29.73;46.33;93832.34;5070413;28;20562;-82
2023/08/29 10:57:43;;;;;;;6.65;5.65;;;;;;;29.38;46.33;93823.59;5063987;28;20024;-84
2023/08/29 11:00:41;;;;;;;9.73;5.70;;;;;;;29.63;46.42;93828.13;5084874;28;20152;-82
2023/08/29 11:03:06;;;;;;;7.57;5.88;;;;;;;29.41;46.30;93830.19;5044595;28;20052;-79
2023/08/29 11:05:32;;;;;;;7.63;6.80;;;;;;;29.60;45.86;93830.66;5081288;28;20150;-81
2023/08/29 11:08:21;;;;;;;6.68;5.70;;;;;;;29.72;46.15;93828.09;5088584;28;20089;-85
2023/08/29 11:11:09;;;;;;;6.80;6.13;;;;;;;29.90;46.51;93820.84;5081698;28;20020;-86
2023/08/29 11:13:35;;;;;;;6.90;6.30;;;;;;;30.06;46.11;93808.53;5076328;28;20036;-87
2023/08/29 11:16:00;;;;;;;9.60;6.30;;;;;;;29.98;45.82;93806.69;5072692;28;20481;-80
2023/08/29 11:18:30;;;;;;;9.77;5.57;;;;;;;29.85;46.45;93799.66;5085353;28;20032;-85
2023/08/29 11:20:56;;;;;;;9.77;6.07;;;;;;;29.84;46.33;93804.22;5087432;28;20032;-85
2023/08/29 11:23:22;;;;;;;6.55;5.97;;;;;;;30.19;46.37;93803.00;5075200;28;20036;-86
2023/08/29 11:25:51;;;;;;;6.55;6.03;;;;;;;30.16;46.09;93797.50;5070823;28;20520;-83
2023/08/29 11:28:17;;;;;;;6.38;5.63;;;;;;;30.15;46.28;93794.03;5093336;28;20489;-86
2023/08/29 11:30:46;;;;;;;6.47;5.88;;;;;;;30.22;46.54;93791.66;5067115;28;20111;-85
2023/08/29 11:33:12;;;;;;;8.32;6.43;;;;;;;30.32;45.66;93788.63;5081506;28;20036;-82
2023/08/29 11:35:38;;;;;;;8.82;5.82;;;;;;;30.40;46.51;93795.06;5069035;28;20094;-87
2023/08/29 11:38:05;;;;;;;8.43;5.82;;;;;;;30.23;45.85;93795.91;5070201;28;20499;-86
2023/08/29 11:40:32;;;;;;;6.68;6.00;;;;;;;30.00;45.83;93791.91;5085558;28;20040;-87
2023/08/29 11:42:58;;;;;;;8.95;6.07;;;;;;;29.57;45.69;93762.63;5056136;28;20610;-83